Time;durP1;ratioP1;P1;durP2;ratioP2;P2;SDS_P1;SDS_P2;PMS_P1;PMS_P2;Temp;Humidity;BMP_temperature;BMP_pressure;BME280_temperature;BME280_humidity;BME280_pressure;Samples;Min_cycle;Max_cycle;Signal;HPM_P1;HPM_P2
2023/04/18 00:01:05;;;;;;;;;63.75;45.25;;;;;13.44;100.00;102057.88;4996712;28;49754;-72
2023/04/18 00:03:30;;;;;;;;;61.50;45.75;;;;;13.40;100.00;102050.72;4997158;28;45136;-75
2023/04/18 00:05:56;;;;;;;;;58.50;45.25;;;;;13.37;100.00;102045.38;4995770;28;60687;-77
2023/04/18 00:08:22;;;;;;;;;64.50;48.50;;;;;13.34;100.00;102050.59;4993002;28;47443;-74
2023/04/18 00:10:47;;;;;;;;;59.00;44.75;;;;;13.29;100.00;102053.16;4996130;28;45521;-74
2023/04/18 00:13:12;;;;;;;;;67.75;49.25;;;;;13.26;100.00;102052.19;4996344;28;46683;-75
2023/04/18 00:15:38;;;;;;;;;64.75;48.25;;;;;13.20;100.00;102044.97;4994614;28;58908;-74
2023/04/18 00:18:04;;;;;;;;;63.50;46.00;;;;;13.18;100.00;102048.47;4996071;28;46348;-71
2023/04/18 00:20:30;;;;;;;;;67.50;48.50;;;;;13.14;100.00;102047.50;4996418;28;45452;-75
2023/04/18 00:22:56;;;;;;;;;65.50;48.75;;;;;13.10;100.00;102038.63;4996287;28;45537;-73
2023/04/18 00:25:22;;;;;;;;;62.75;47.00;;;;;13.09;100.00;102054.47;4994980;28;45453;-73
2023/04/18 00:27:47;;;;;;;;;59.00;47.00;;;;;13.06;100.00;102050.03;4995585;28;46063;-73
2023/04/18 00:30:13;;;;;;;;;59.25;45.25;;;;;13.04;100.00;102046.41;4993654;28;69550;-72
2023/04/18 00:32:38;;;;;;;;;64.75;49.75;;;;;13.01;100.00;102037.53;4995397;28;45412;-73
2023/04/18 00:35:04;;;;;;;;;62.75;46.00;;;;;12.98;100.00;102041.00;4994180;28;61608;-75
2023/04/18 00:37:30;;;;;;;;;61.50;46.75;;;;;12.95;100.00;102045.38;4996500;28;45381;-74
2023/04/18 00:39:55;;;;;;;;;65.25;48.00;;;;;12.93;100.00;102029.41;4995124;28;67489;-74
2023/04/18 00:42:21;;;;;;;;;62.25;45.00;;;;;12.90;100.00;102039.97;4996470;28;45206;-74
2023/04/18 00:44:46;;;;;;;;;65.50;49.00;;;;;12.90;100.00;102039.06;4995867;28;45700;-73
2023/04/18 00:47:13;;;;;;;;;64.25;48.75;;;;;12.89;100.00;102042.56;4994993;28;46249;-76
2023/04/18 00:49:39;;;;;;;;;66.50;50.75;;;;;12.84;100.00;102027.47;4993900;28;45488;-73
2023/04/18 00:52:04;;;;;;;;;56.75;48.25;;;;;12.83;100.00;102033.63;4996151;28;45361;-75
2023/04/18 00:54:29;;;;;;;;;64.50;48.00;;;;;12.79;100.00;102033.56;4977448;28;60361;-75
2023/04/18 00:56:55;;;;;;;;;63.50;48.75;;;;;12.80;100.00;102030.03;4995617;28;45775;-75
2023/04/18 00:59:21;;;;;;;;;64.75;48.50;;;;;12.77;100.00;102024.66;4995689;28;45354;-75
2023/04/18 01:01:46;;;;;;;;;63.25;49.00;;;;;12.81;100.00;102026.50;4995606;28;45270;-77
2023/04/18 01:04:12;;;;;;;;;62.75;46.00;;;;;12.82;100.00;102028.28;4995806;28;45430;-75
2023/04/18 01:06:37;;;;;;;;;67.25;48.25;;;;;12.82;100.00;102017.69;4994901;28;59668;-76
2023/04/18 01:09:04;;;;;;;;;65.00;47.50;;;;;12.85;100.00;102023.97;4977392;28;45437;-75
2023/04/18 01:11:30;;;;;;;;;63.75;46.50;;;;;12.85;100.00;102029.25;4996041;28;45345;-75
2023/04/18 01:13:59;;;;;;;;;65.50;48.75;;;;;12.85;100.00;102028.38;4995769;28;45540;-75
2023/04/18 01:16:25;;;;;;;;;62.25;48.75;;;;;12.86;100.00;102027.50;4995136;28;45507;-76
2023/04/18 01:18:51;;;;;;;;;62.25;47.25;;;;;12.89;100.00;102019.63;4995552;28;45602;-76
2023/04/18 01:21:17;;;;;;;;;64.25;47.00;;;;;12.89;100.00;102022.28;4995813;28;45278;-75
2023/04/18 01:23:42;;;;;;;;;63.50;47.75;;;;;12.85;100.00;102008.06;4994894;28;45345;-78
2023/04/18 01:26:07;;;;;;;;;63.75;49.00;;;;;12.90;100.00;102009.91;4994042;28;68760;-75
2023/04/18 01:28:35;;;;;;;;;62.25;47.75;;;;;12.91;100.00;102012.59;4995066;28;45596;-75
2023/04/18 01:31:00;;;;;;;;;63.75;49.00;;;;;12.91;100.00;102004.63;4995573;28;45674;-75
2023/04/18 01:33:26;;;;;;;;;64.00;47.00;;;;;12.93;100.00;102008.19;4994409;28;63103;-76
2023/04/18 01:35:51;;;;;;;;;64.25;49.75;;;;;12.94;100.00;102009.97;4995554;28;46416;-75
2023/04/18 01:38:16;;;;;;;;;61.00;46.75;;;;;12.95;100.00;102001.19;4994112;28;65313;-75
2023/04/18 01:40:42;;;;;;;;;68.75;49.00;;;;;12.94;100.00;101999.38;4994991;28;55924;-75
2023/04/18 01:43:07;;;;;;;;;62.25;46.50;;;;;12.95;100.00;102000.31;4993959;28;59056;-75
2023/04/18 01:45:32;;;;;;;;;67.75;49.00;;;;;12.94;100.00;101998.47;4994704;28;64023;-77
2023/04/18 01:47:58;;;;;;;;;64.00;46.25;;;;;12.95;100.00;102001.19;4994920;28;45397;-75
2023/04/18 01:50:23;;;;;;;;;68.00;49.00;;;;;12.92;100.00;101998.47;4994377;28;61186;-73
2023/04/18 01:52:48;;;;;;;;;67.25;49.75;;;;;12.90;100.00;102008.16;5002913;28;45233;-76
2023/04/18 01:55:14;;;;;;;;;64.50;47.00;;;;;12.85;100.00;102007.16;4997986;28;46751;-76
2023/04/18 01:57:39;;;;;;;;;67.00;46.00;;;;;12.80;100.00;102003.53;4998020;28;67036;-77
2023/04/18 02:00:05;;;;;;;;;61.50;47.50;;;;;12.77;100.00;102003.44;4997059;28;64693;-75
2023/04/18 02:02:31;;;;;;;;;67.50;48.00;;;;;12.75;100.00;102000.78;4998878;28;45294;-77
2023/04/18 02:04:56;;;;;;;;;66.00;49.00;;;;;12.71;100.00;102001.56;4998347;28;46632;-75
2023/04/18 02:07:22;;;;;;;;;62.75;46.50;;;;;12.70;100.00;102005.09;4997279;28;67702;-75
2023/04/18 02:09:47;;;;;;;;;63.00;49.00;;;;;12.67;100.00;102005.00;4997113;28;45395;-75
2023/04/18 02:12:12;;;;;;;;;63.25;47.25;;;;;12.65;100.00;102009.41;4998135;28;56552;-72
2023/04/18 02:14:38;;;;;;;;;62.00;46.25;;;;;12.64;100.00;101991.72;4998104;28;46231;-75
2023/04/18 02:17:03;;;;;;;;;62.25;47.25;;;;;12.66;100.00;102002.34;4980721;28;45377;-74
2023/04/18 02:19:29;;;;;;;;;62.50;47.50;;;;;12.65;100.00;101997.91;4997148;28;64037;-76
2023/04/18 02:21:54;;;;;;;;;58.50;46.00;;;;;12.63;100.00;101989.03;4997906;28;62365;-72
2023/04/18 02:24:19;;;;;;;;;60.00;45.00;;;;;12.62;100.00;101997.81;4997527;28;46535;-75
2023/04/18 02:26:45;;;;;;;;;60.25;47.75;;;;;12.59;100.00;101986.31;4997499;28;58518;-75
2023/04/18 02:29:10;;;;;;;;;63.50;45.25;;;;;12.57;100.00;101985.41;4998488;28;46573;-73
2023/04/18 02:31:39;;;;;;;;;65.75;49.25;;;;;12.55;100.00;101981.81;4997803;28;45475;-75
2023/04/18 02:34:05;;;;;;;;;64.50;48.50;;;;;12.58;100.00;101984.53;4998289;28;45400;-76
2023/04/18 02:36:31;;;;;;;;;68.50;47.50;;;;;12.59;100.00;101986.31;4997399;28;45354;-75
2023/04/18 02:38:56;;;;;;;;;63.75;47.75;;;;;12.58;100.00;101988.94;4995882;28;50811;-75
2023/04/18 02:41:22;;;;;;;;;60.25;47.00;;;;;12.53;100.00;101986.19;4997400;28;62658;-76
2023/04/18 02:43:47;;;;;;;;;62.75;46.75;;;;;12.50;100.00;101974.63;4997144;28;46512;-75
2023/04/18 02:46:13;;;;;;;;;64.75;46.00;;;;;12.47;100.00;101975.47;4997698;28;45203;-73
2023/04/18 02:48:38;;;;;;;;;60.00;46.50;;;;;12.44;100.00;101974.50;4994728;28;45457;-75
2023/04/18 02:51:05;;;;;;;;;64.00;47.25;;;;;12.44;100.00;101975.38;4997571;28;59299;-77
2023/04/18 02:53:30;;;;;;;;;61.00;49.50;;;;;12.42;100.00;101968.28;4997202;28;46604;-75
2023/04/18 02:55:56;;;;;;;;;58.50;45.00;;;;;12.40;100.00;101975.28;4997081;28;45449;-75
2023/04/18 02:58:21;;;;;;;;;62.75;48.50;;;;;12.38;100.00;101964.66;4998168;28;45697;-77
2023/04/18 03:00:48;;;;;;;;;58.25;47.00;;;;;12.35;100.00;101964.56;4997800;28;45561;-76
2023/04/18 03:03:14;;;;;;;;;61.00;45.25;;;;;12.35;100.00;101968.97;4996566;28;47540;-75
2023/04/18 03:05:39;;;;;;;;;62.00;47.50;;;;;12.33;100.00;101963.66;4997340;28;45396;-76
2023/04/18 03:08:05;;;;;;;;;55.50;40.50;;;;;12.33;100.00;101964.56;4997382;28;45429;-75
2023/04/18 03:10:30;;;;;;;;;60.50;46.00;;;;;12.30;100.00;101971.53;4996964;28;59305;-76
2023/04/18 03:12:56;;;;;;;;;61.75;48.50;;;;;12.28;100.00;101968.84;4997653;28;51248;-76
2023/04/18 03:15:21;;;;;;;;;62.00;50.00;;;;;12.28;100.00;101971.50;4997138;28;45377;-75
2023/04/18 03:17:46;;;;;;;;;63.50;46.75;;;;;12.27;100.00;101964.44;4994135;28;45455;-74
2023/04/18 03:20:12;;;;;;;;;62.00;45.25;;;;;12.29;100.00;101969.75;4996694;28;61621;-75
2023/04/18 03:22:37;;;;;;;;;62.50;49.25;;;;;12.28;100.00;101968.84;4997329;28;46926;-75
2023/04/18 03:25:03;;;;;;;;;62.00;48.25;;;;;12.28;100.00;101970.59;4996046;28;60790;-75
2023/04/18 03:27:28;;;;;;;;;61.50;47.75;;;;;12.26;100.00;101964.41;4996179;28;45682;-77
2023/04/18 03:29:53;;;;;;;;;62.25;49.75;;;;;12.24;100.00;101974.94;4996633;28;56147;-75
2023/04/18 03:32:19;;;;;;;;;63.50;48.00;;;;;12.22;100.00;101960.78;4996284;28;70774;-75
2023/04/18 03:34:44;;;;;;;;;63.75;49.00;;;;;12.22;100.00;101966.06;4997043;28;45335;-75
2023/04/18 03:37:09;;;;;;;;;65.00;49.50;;;;;12.19;100.00;101965.09;4996803;28;45185;-74
2023/04/18 03:39:35;;;;;;;;;54.50;44.50;;;;;12.18;100.00;101969.50;4997383;28;45340;-75
2023/04/18 03:42:01;;;;;;;;;61.00;46.50;;;;;12.16;100.00;101975.63;4995906;28;68661;-74
2023/04/18 03:44:26;;;;;;;;;63.75;49.25;;;;;12.12;100.00;101968.47;4996257;28;45405;-76
2023/04/18 03:46:52;;;;;;;;;67.75;49.75;;;;;12.10;100.00;101970.22;4995657;28;45483;-76
2023/04/18 03:49:18;;;;;;;;;65.25;47.00;;;;;12.09;100.00;101968.41;4996924;28;45574;-77
2023/04/18 03:51:48;;;;;;;;;67.00;48.50;;;;;12.09;100.00;101971.03;4996778;28;47017;-74
2023/04/18 03:54:14;;;;;;;;;67.75;52.50;;;;;12.06;100.00;101967.47;4996433;28;45452;-75
2023/04/18 03:56:40;;;;;;;;;67.00;50.00;;;;;12.06;100.00;101969.25;4996612;28;45490;-76
2023/04/18 03:59:05;;;;;;;;;69.25;51.25;;;;;12.04;100.00;101968.31;4996575;28;45268;-75
2023/04/18 04:01:31;;;;;;;;;69.25;51.75;;;;;12.02;100.00;101970.91;4996267;28;46527;-75
2023/04/18 04:03:56;;;;;;;;;68.25;51.50;;;;;12.01;100.00;101971.78;4996963;28;45302;-76
2023/04/18 04:06:21;;;;;;;;;67.75;48.25;;;;;11.98;100.00;101960.22;4995478;28;62409;-76
2023/04/18 04:08:47;;;;;;;;;64.25;49.25;;;;;11.95;100.00;101961.03;4997302;28;45504;-77
2023/04/18 04:11:12;;;;;;;;;51.75;38.75;;;;;11.91;100.00;101956.53;4995735;28;69264;-75
2023/04/18 04:13:37;;;;;;;;;69.75;52.00;;;;;11.88;100.00;101953.84;4995625;28;45266;-75
2023/04/18 04:16:03;;;;;;;;;68.25;50.00;;;;;11.87;100.00;101957.31;4998702;28;65701;-74
2023/04/18 04:18:30;;;;;;;;;63.50;47.25;;;;;11.88;100.00;101956.47;4998159;28;45419;-75
2023/04/18 04:20:59;;;;;;;;;68.25;52.25;;;;;11.87;100.00;101951.13;4978631;28;47737;-74
2023/04/18 04:23:25;;;;;;;;;63.75;48.75;;;;;11.86;100.00;101952.00;4996674;28;45298;-76
2023/04/18 04:25:51;;;;;;;;;66.00;49.00;;;;;11.85;100.00;101955.50;4995575;28;45365;-75
2023/04/18 04:28:18;;;;;;;;;66.25;49.25;;;;;11.84;100.00;101951.06;4996070;28;45886;-76
2023/04/18 04:30:43;;;;;;;;;61.00;47.75;;;;;11.83;100.00;101944.00;4995439;28;47201;-73
2023/04/18 04:33:08;;;;;;;;;63.75;49.00;;;;;11.83;100.00;101951.94;4995798;28;45293;-75
2023/04/18 04:35:35;;;;;;;;;64.75;50.25;;;;;11.83;100.00;101957.22;4995911;28;47495;-76
2023/04/18 04:38:01;;;;;;;;;69.00;50.25;;;;;11.80;100.00;101953.59;4996146;28;45311;-75
2023/04/18 04:40:26;;;;;;;;;61.25;49.75;;;;;11.77;100.00;101949.97;4991563;28;45656;-75
2023/04/18 04:42:54;;;;;;;;;64.00;49.50;;;;;11.77;100.00;101948.25;4994974;28;45438;-75
2023/04/18 04:45:20;;;;;;;;;62.75;49.25;;;;;11.77;100.00;101949.97;4992998;28;45755;-76
2023/04/18 04:47:46;;;;;;;;;59.75;48.00;;;;;11.76;100.00;101953.47;4994414;28;45898;-77
2023/04/18 04:50:14;;;;;;;;;70.25;49.50;;;;;11.75;100.00;101946.41;4993884;28;46576;-77
2023/04/18 04:52:41;;;;;;;;;66.00;48.50;;;;;11.74;100.00;101948.16;4996418;28;45469;-79
2023/04/18 04:55:06;;;;;;;;;70.50;50.50;;;;;11.72;100.00;101954.28;4995002;28;45466;-76
2023/04/18 04:57:31;;;;;;;;;71.00;47.50;;;;;11.71;100.00;101949.81;4994170;28;45638;-75
2023/04/18 04:59:57;;;;;;;;;65.25;48.00;;;;;11.70;100.00;101953.34;4994042;28;68191;-75
2023/04/18 05:02:22;;;;;;;;;61.25;47.00;;;;;11.68;100.00;101947.13;4994550;28;48609;-73
2023/04/18 05:04:48;;;;;;;;;70.00;50.25;;;;;11.68;100.00;101950.66;4996184;28;45841;-77
2023/04/18 05:07:14;;;;;;;;;67.00;49.75;;;;;11.64;100.00;101954.09;4994800;28;45418;-76
2023/04/18 05:09:39;;;;;;;;;60.25;46.50;;;;;11.64;100.00;101963.78;4992388;28;46709;-77
2023/04/18 05:12:04;;;;;;;;;65.50;50.75;;;;;11.59;100.00;101957.47;4990221;28;69525;-76
2023/04/18 05:14:30;;;;;;;;;68.00;49.75;;;;;11.62;100.00;101965.50;4994516;28;45420;-77
2023/04/18 05:16:55;;;;;;;;;65.25;47.25;;;;;11.62;100.00;101960.22;4993747;28;57863;-77
2023/04/18 05:19:22;;;;;;;;;69.25;50.00;;;;;11.61;100.00;101966.31;4994224;28;45332;-78
2023/04/18 05:21:48;;;;;;;;;62.75;49.75;;;;;11.60;100.00;101962.78;4994550;28;45456;-77
2023/04/18 05:24:13;;;;;;;;;64.25;48.75;;;;;11.60;100.00;101964.53;4991293;28;53465;-78
2023/04/18 05:26:39;;;;;;;;;67.75;51.25;;;;;11.61;100.00;101963.69;4994103;28;63399;-77
2023/04/18 05:29:04;;;;;;;;;65.50;50.00;;;;;11.60;100.00;101964.53;4997281;28;46420;-77
2023/04/18 05:31:30;;;;;;;;;67.00;50.50;;;;;11.60;100.00;101961.91;4998316;28;68236;-77
2023/04/18 05:33:55;;;;;;;;;60.00;48.25;;;;;11.62;100.00;101963.75;4998828;28;45507;-78
2023/04/18 05:36:21;;;;;;;;;67.75;50.00;;;;;11.62;100.00;101961.09;4998082;28;53988;-79
2023/04/18 05:38:46;;;;;;;;;61.75;48.00;;;;;11.61;100.00;101956.69;4996250;28;46159;-75
2023/04/18 05:41:11;;;;;;;;;72.25;52.25;;;;;11.61;100.00;101956.69;4996265;28;69385;-80
2023/04/18 05:43:37;;;;;;;;;69.25;49.75;;;;;11.63;100.00;101960.25;4998102;28;50316;-80
2023/04/18 05:46:02;;;;;;;;;66.00;51.00;;;;;11.65;100.00;101969.09;4999202;28;45519;-77
2023/04/18 05:48:27;;;;;;;;;63.25;48.00;;;;;11.65;100.00;101955.88;4995533;28;67986;-78
2023/04/18 05:50:53;;;;;;;;;68.50;49.25;;;;;11.66;100.00;101967.34;4994671;28;45400;-78
2023/04/18 05:53:18;;;;;;;;;67.25;48.25;;;;;11.67;100.00;101979.75;4997215;28;61930;-78
2023/04/18 05:55:45;;;;;;;;;69.00;50.75;;;;;11.66;100.00;101976.16;4998988;28;45483;-78
2023/04/18 05:58:10;;;;;;;;;63.00;47.00;;;;;11.68;100.00;101977.13;4998054;28;46355;-77
2023/04/18 06:00:36;;;;;;;;;64.00;49.00;;;;;11.69;100.00;101972.72;4997549;28;45473;-78
2023/04/18 06:03:01;;;;;;;;;70.25;49.25;;;;;11.70;100.00;101966.56;4991811;28;45504;-78
2023/04/18 06:05:27;;;;;;;;;66.00;49.00;;;;;11.70;100.00;101959.53;4997042;28;45748;-78
2023/04/18 06:07:52;;;;;;;;;70.00;51.00;;;;;11.72;100.00;101963.13;4985920;28;46423;-77
2023/04/18 06:10:18;;;;;;;;;68.50;49.25;;;;;11.74;100.00;101971.09;4997061;28;63059;-76
2023/04/18 06:12:43;;;;;;;;;61.00;46.75;;;;;11.76;100.00;101966.72;4997414;28;60121;-76
2023/04/18 06:15:09;;;;;;;;;70.75;50.00;;;;;11.79;100.00;101961.50;4997191;28;53828;-76
2023/04/18 06:17:34;;;;;;;;;65.25;50.50;;;;;11.80;100.00;101972.13;4997155;28;45453;-75
2023/04/18 06:20:00;;;;;;;;;62.00;48.00;;;;;11.83;100.00;101968.69;4980927;28;45499;-76
2023/04/18 06:22:26;;;;;;;;;67.25;50.50;;;;;11.83;100.00;101966.06;4997819;28;45409;-75
2023/04/18 06:24:51;;;;;;;;;67.00;50.00;;;;;11.84;100.00;101973.13;4998563;28;45364;-76
2023/04/18 06:27:16;;;;;;;;;61.50;46.50;;;;;11.84;100.00;101973.13;4997897;28;46522;-80
2023/04/18 06:29:42;;;;;;;;;61.00;48.00;;;;;11.87;100.00;101977.59;4996738;28;64311;-76
2023/04/18 06:32:08;;;;;;;;;65.75;48.75;;;;;11.89;100.00;101965.31;4998843;28;45443;-80
2023/04/18 06:34:33;;;;;;;;;70.75;49.00;;;;;11.90;100.00;101960.03;4997436;28;45583;-75
2023/04/18 06:36:59;;;;;;;;;67.00;49.25;;;;;11.87;100.00;101962.59;4993591;28;46629;-75
2023/04/18 06:39:24;;;;;;;;;65.75;51.25;;;;;11.87;100.00;101969.66;4996041;28;58903;-77
2023/04/18 06:41:49;;;;;;;;;65.00;46.75;;;;;11.92;100.00;101966.25;4997861;28;45459;-77
2023/04/18 06:44:15;;;;;;;;;65.50;47.50;;;;;11.99;100.00;101965.56;4998542;28;45492;-81
2023/04/18 06:46:41;;;;;;;;;64.75;49.00;;;;;12.10;100.00;101968.44;4993575;28;59221;-77
2023/04/18 06:49:06;;;;;;;;;68.75;50.00;;;;;12.18;100.00;101971.25;4996833;28;45266;-79
2023/04/18 06:51:32;;;;;;;;;69.00;48.50;;;;;12.22;100.00;101959.88;4996977;28;60046;-78
2023/04/18 06:53:58;;;;;;;;;60.50;47.25;;;;;12.27;100.00;101969.72;4995914;28;45361;-79
2023/04/18 06:56:23;;;;;;;;;60.50;46.75;;;;;12.30;100.00;101960.94;4997878;28;45754;-79
2023/04/18 06:58:50;;;;;;;;;65.00;48.00;;;;;12.35;100.00;101961.94;4996368;28;69415;-81
2023/04/18 07:01:15;;;;;;;;;63.25;48.75;;;;;12.39;100.00;101963.78;4997228;28;45379;-78
2023/04/18 07:03:41;;;;;;;;;60.25;46.00;;;;;12.43;100.00;101962.13;4979748;28;45599;-78
2023/04/18 07:06:07;;;;;;;;;58.75;42.75;;;;;12.48;100.00;101961.34;4995595;28;67950;-77
2023/04/18 07:08:33;;;;;;;;;68.00;49.25;;;;;12.57;100.00;101955.38;4997462;28;45478;-78
2023/04/18 07:10:59;;;;;;;;;67.75;47.50;;;;;12.68;100.00;101960.88;4977845;28;45487;-79
2023/04/18 07:13:24;;;;;;;;;59.25;45.25;;;;;12.83;100.00;101964.72;4997071;28;53620;-77
2023/04/18 07:15:49;;;;;;;;;69.00;48.50;;;;;13.02;100.00;101960.66;4991849;28;66963;-78
2023/04/18 07:18:15;;;;;;;;;68.25;51.00;;;;;13.22;100.00;101969.03;4978475;28;46603;-78
2023/04/18 07:20:40;;;;;;;;;60.50;47.25;;;;;13.38;100.00;101964.00;4997016;28;45769;-77
2023/04/18 07:23:06;;;;;;;;;65.00;48.75;;;;;13.44;100.00;101972.97;4997342;28;45483;-79
2023/04/18 07:25:31;;;;;;;;;64.75;47.25;;;;;13.44;100.00;101961.47;4997195;28;46489;-78
2023/04/18 07:27:57;;;;;;;;;60.75;47.00;;;;;13.45;100.00;101966.78;4979359;28;50288;-77
2023/04/18 07:30:22;;;;;;;;;60.50;48.00;;;;;13.47;100.00;101949.13;4996609;28;45445;-77
2023/04/18 07:32:48;;;;;;;;;61.00;48.25;;;;;13.54;100.00;101961.66;4997557;28;45479;-78
2023/04/18 07:35:14;;;;;;;;;69.50;49.25;;;;;13.58;100.00;101955.53;4979848;28;46404;-77
2023/04/18 07:37:39;;;;;;;;;62.25;46.75;;;;;13.59;100.00;101959.97;4990501;28;45349;-80
2023/04/18 07:40:07;;;;;;;;;62.00;49.25;;;;;13.67;100.00;101969.81;4996568;28;55711;-78
2023/04/18 07:42:33;;;;;;;;;70.00;51.50;;;;;13.75;100.00;101955.81;4994809;28;45521;-80
2023/04/18 07:44:58;;;;;;;;;61.00;48.00;;;;;13.85;100.00;101959.50;4996801;28;52910;-78
2023/04/18 07:47:25;;;;;;;;;64.25;49.25;;;;;13.89;100.00;101954.22;4996091;28;45503;-78
2023/04/18 07:49:51;;;;;;;;;66.75;51.00;;;;;13.93;100.00;101951.63;4995469;28;45530;-78
2023/04/18 07:52:16;;;;;;;;;66.50;50.00;;;;;13.99;100.00;101947.31;4995844;28;57185;-77
2023/04/18 07:54:41;;;;;;;;;71.75;51.75;;;;;14.10;100.00;101945.69;4996869;28;50538;-80
2023/04/18 07:57:07;;;;;;;;;67.50;47.50;;;;;14.23;100.00;101957.41;4995317;28;67335;-78
2023/04/18 07:59:32;;;;;;;;;69.50;50.50;;;;;14.33;100.00;101950.47;4996183;28;61054;-78
2023/04/18 08:01:57;;;;;;;;;61.50;47.00;;;;;14.41;100.00;101941.69;4995271;28;49536;-78
2023/04/18 08:04:23;;;;;;;;;63.00;50.00;;;;;14.45;100.00;101939.97;4995364;28;66472;-78
2023/04/18 08:06:48;;;;;;;;;67.50;49.25;;;;;14.49;100.00;101944.50;4996219;28;45386;-77
2023/04/18 08:09:13;;;;;;;;;61.75;47.25;;;;;14.52;100.00;101936.56;4996031;28;45392;-78
2023/04/18 08:11:41;;;;;;;;;65.25;50.00;;;;;14.51;100.00;101941.84;4995894;28;45488;-78
2023/04/18 08:14:06;;;;;;;;;67.50;50.00;;;;;14.50;100.00;101935.66;4994662;28;45970;-76
2023/04/18 08:16:31;;;;;;;;;64.25;48.75;;;;;14.51;100.00;101933.88;4979899;28;65465;-78
2023/04/18 08:18:57;;;;;;;;;59.75;44.50;;;;;14.57;100.00;101940.16;4993615;28;55008;-74
2023/04/18 08:21:22;;;;;;;;;65.75;48.00;;;;;14.65;100.00;101940.28;4992441;28;55673;-79
2023/04/18 08:23:47;;;;;;;;;65.00;49.75;;;;;14.70;100.00;101940.28;4993640;28;45941;-78
2023/04/18 08:26:13;;;;;;;;;63.50;48.50;;;;;14.74;100.00;101924.41;4995268;28;45576;-78
2023/04/18 08:28:38;;;;;;;;;66.00;50.75;;;;;14.79;100.00;101937.75;4995068;28;57668;-78
2023/04/18 08:31:04;;;;;;;;;62.25;48.50;;;;;14.82;100.00;101932.47;4995445;28;58474;-78
2023/04/18 08:33:30;;;;;;;;;61.25;48.25;;;;;14.84;100.00;101923.63;4995854;28;46908;-80
2023/04/18 08:35:55;;;;;;;;;63.50;47.75;;;;;14.82;100.00;101925.41;4995511;28;49846;-78
2023/04/18 08:38:20;;;;;;;;;63.50;49.75;;;;;14.79;100.00;101925.34;4995831;28;60365;-78
2023/04/18 08:40:46;;;;;;;;;62.25;46.50;;;;;14.79;100.00;101929.78;4995789;28;45467;-77
2023/04/18 08:43:15;;;;;;;;;63.75;47.50;;;;;14.78;100.00;101920.03;4991936;28;45630;-78
2023/04/18 08:45:42;;;;;;;;;61.00;47.00;;;;;14.79;100.00;101921.81;4995864;28;45415;-78
2023/04/18 08:48:15;;;;;;;;;69.00;51.00;;;;;14.76;100.00;101922.66;4995458;28;45464;-75
2023/04/18 08:50:41;;;;;;;;;63.00;47.00;;;;;14.73;100.00;101917.31;4995438;28;45433;-75
2023/04/18 08:53:07;;;;;;;;;63.25;45.75;;;;;14.67;100.00;101918.13;4978184;28;47607;-78
2023/04/18 08:55:32;;;;;;;;;57.75;46.00;;;;;14.66;100.00;101916.34;4978108;28;46004;-77
2023/04/18 08:57:58;;;;;;;;;63.00;50.50;;;;;14.66;100.00;101904.84;4996391;28;45842;-79
2023/04/18 09:00:24;;;;;;;;;62.25;47.00;;;;;14.64;100.00;101907.44;4978347;28;45842;-77
2023/04/18 09:02:55;;;;;;;;;61.75;46.75;;;;;14.63;100.00;101918.97;4994797;28;45753;-78
2023/04/18 09:05:21;;;;;;;;;60.50;47.25;;;;;14.65;100.00;101916.34;4991707;28;45476;-78
2023/04/18 09:07:48;;;;;;;;;63.00;47.25;;;;;14.66;100.00;101911.03;4996282;28;45274;-77
2023/04/18 09:10:33;;;;;;;;;58.75;43.50;;;;;14.70;100.00;101909.31;4976467;28;45586;-80
2023/04/18 09:13:01;;;;;;;;;56.00;42.50;;;;;14.68;100.00;101909.28;4995113;28;47381;-78
2023/04/18 09:15:28;;;;;;;;;60.75;46.50;;;;;14.67;100.00;101901.28;4995613;28;45740;-79
2023/04/18 09:17:56;;;;;;;;;58.00;46.25;;;;;14.68;100.00;101909.28;4995306;28;45486;-80
2023/04/18 09:20:29;;;;;;;;;55.25;44.00;;;;;14.69;100.00;101904.84;4994143;28;45511;-78
2023/04/18 09:22:56;;;;;;;;;63.00;45.75;;;;;14.70;100.00;101898.69;4977768;28;47635;-78
2023/04/18 09:25:45;;;;;;;;;57.25;43.75;;;;;14.75;100.00;101890.72;4995789;28;45605;-79
2023/04/18 09:28:32;;;;;;;;;52.75;41.50;;;;;14.84;100.00;101890.84;4978070;28;45553;-78
2023/04/18 09:31:17;;;;;;;;;50.75;41.25;;;;;14.91;100.00;101887.34;4989246;28;45578;-80
2023/04/18 09:33:55;;;;;;;;;59.50;43.75;;;;;14.96;100.00;101884.75;4992758;28;46605;-80
2023/04/18 09:36:23;;;;;;;;;60.00;46.50;;;;;15.00;100.00;101881.25;4977523;28;45491;-78
2023/04/18 09:38:50;;;;;;;;;57.00;44.00;;;;;15.04;100.00;101878.63;4994079;28;48177;-79
2023/04/18 09:41:16;;;;;;;;;54.25;43.00;;;;;15.09;100.00;101878.69;4977452;28;45482;-77
2023/04/18 09:43:44;;;;;;;;;52.50;41.25;;;;;15.15;100.00;101871.63;4995014;28;45538;-75
2023/04/18 09:46:11;;;;;;;;;53.75;42.75;;;;;15.20;100.00;101867.25;4970884;28;45503;-79
2023/04/18 09:48:36;;;;;;;;;55.75;44.50;;;;;15.27;100.00;101886.81;4993895;28;45460;-78
2023/04/18 09:51:07;;;;;;;;;58.00;45.00;;;;;15.30;100.00;101867.34;4976836;28;45638;-78
2023/04/18 09:53:38;;;;;;;;;53.75;44.75;;;;;15.32;100.00;101860.25;4995155;28;45956;-79
2023/04/18 09:56:05;;;;;;;;;58.50;44.75;;;;;15.34;100.00;101863.78;4977233;28;45401;-77
2023/04/18 09:58:31;;;;;;;;;57.50;44.75;;;;;15.37;100.00;101863.84;4977834;28;45401;-79
2023/04/18 10:00:57;;;;;;;;;54.00;42.50;;;;;15.40;100.00;101855.88;4993352;28;45556;-78
2023/04/18 10:03:27;;;;;;;;;59.75;44.25;;;;;15.45;100.00;101856.81;4991885;28;72567;-73
2023/04/18 10:05:53;;;;;;;;;56.75;45.25;;;;;15.51;100.00;101855.97;4977432;28;45355;-73
2023/04/18 10:08:18;;;;;;;;;52.50;43.00;;;;;15.55;100.00;101860.41;4994347;28;62205;-74
2023/04/18 10:10:44;;;;;;;;;52.25;41.00;;;;;15.59;100.00;101856.88;4995055;28;45381;-74
2023/04/18 10:13:10;;;;;;;;;54.25;42.50;;;;;15.63;100.00;101845.44;4997163;28;46587;-74
2023/04/18 10:15:36;;;;;;;;;51.50;40.00;;;;;15.67;100.00;101833.91;4979816;28;45532;-74
2023/04/18 10:18:07;;;;;;;;;52.00;41.50;;;;;15.70;100.00;101840.13;4992077;28;45462;-74
2023/04/18 10:20:33;;;;;;;;;53.50;39.75;;;;;15.75;100.00;101834.84;4997568;28;45305;-73
2023/04/18 10:22:59;;;;;;;;;53.50;41.75;;;;;15.76;100.00;101828.63;4997901;28;45373;-77
2023/04/18 10:25:34;;;;;;;;;52.75;43.00;;;;;15.84;100.00;101834.91;5109735;22;45533;-75
2023/04/18 10:28:00;;;;;;;;;51.75;41.00;;;;;15.90;100.00;101839.38;5018265;28;45545;-76
2023/04/18 10:30:41;;;;;;;;;51.25;42.25;;;;;15.95;100.00;101822.53;5017307;28;45519;-75
2023/04/18 10:33:25;;;;;;;;;54.75;42.00;;;;;16.00;100.00;101822.53;5016228;28;45833;-79
2023/04/18 10:35:59;;;;;;;;;53.75;41.50;;;;;16.04;100.00;101821.69;5015323;28;45365;-78
2023/04/18 10:38:25;;;;;;;;;52.25;41.25;;;;;16.04;100.00;101821.69;5018121;28;46713;-73
2023/04/18 10:40:50;;;;;;;;;59.50;44.25;;;;;16.04;100.00;101813.69;5005761;28;45611;-73
2023/04/18 10:43:15;;;;;;;;;55.25;41.00;;;;;16.02;100.00;101810.13;5016174;28;72363;-79
2023/04/18 10:45:41;;;;;;;;;58.50;44.75;;;;;16.03;100.00;101811.00;5014861;28;45487;-73
2023/04/18 10:48:23;;;;;;;;;55.50;41.75;;;;;16.11;100.00;101799.50;5017398;28;45282;-74
2023/04/18 10:51:11;;;;;;;;;51.75;39.75;;;;;16.35;100.00;101805.78;5011975;28;45469;-72
2023/04/18 10:53:36;;;;;;;;;52.25;41.00;;;;;16.53;100.00;101802.28;5017519;28;45503;-72
2023/04/18 10:56:02;;;;;;;;;51.50;41.25;;;;;16.65;100.00;101788.97;5016916;28;46464;-74
2023/04/18 10:58:29;;;;;;;;;47.25;39.50;;;;;16.71;100.00;101797.91;5014585;28;45416;-76